createdAt,value
2022-09-24T00:00:59.782Z,14.73
2022-09-24T00:02:04.532Z,14.42
2022-09-24T00:03:06.441Z,14.03
2022-09-24T00:04:12.227Z,13.69
2022-09-24T00:05:14.823Z,13.37
2022-09-24T00:06:21.125Z,13.11
2022-09-24T00:07:22.880Z,12.88
2022-09-24T00:08:24.608Z,12.70
2022-09-24T00:09:26.433Z,12.53
2022-09-24T00:10:28.196Z,12.38
2022-09-24T00:11:34.702Z,12.26
2022-09-24T00:12:37.506Z,12.19
2022-09-24T00:13:40.783Z,12.50
2022-09-24T00:14:42.695Z,13.08
2022-09-24T00:15:50.371Z,13.71
2022-09-24T00:16:52.213Z,14.34
2022-09-24T00:17:53.972Z,14.83
2022-09-24T00:18:55.940Z,15.21
2022-09-24T00:19:57.692Z,15.28
2022-09-24T00:20:59.954Z,15.04
2022-09-24T00:22:01.742Z,14.65
2022-09-24T00:23:03.530Z,14.28
2022-09-24T00:24:33.284Z,13.93
2022-09-24T00:26:07.695Z,13.51
2022-09-24T00:27:09.435Z,13.15
2022-09-24T00:28:13.513Z,12.95
2022-09-24T00:29:24.322Z,12.76
2022-09-24T00:30:26.161Z,12.58
2022-09-24T00:31:28.631Z,12.69
2022-09-24T00:32:30.625Z,13.16
2022-09-24T00:33:34.525Z,13.76
2022-09-24T00:34:36.389Z,14.34
2022-09-24T00:35:41.700Z,14.83
2022-09-24T00:36:46.926Z,15.29
2022-09-24T00:37:49.990Z,15.48
2022-09-24T00:38:54.402Z,15.27
2022-09-24T00:39:56.863Z,14.88
2022-09-24T00:40:59.816Z,14.47
2022-09-24T00:42:01.618Z,14.08
2022-09-24T00:43:26.499Z,13.73
2022-09-24T00:44:54.454Z,13.34
2022-09-24T00:46:09.450Z,12.99
2022-09-24T00:47:27.644Z,12.76
2022-09-24T00:48:30.429Z,12.87
2022-09-24T00:49:32.332Z,13.35
2022-09-24T00:50:35.476Z,13.94
2022-09-24T00:51:39.814Z,14.52
2022-09-24T00:52:48.631Z,15.01
2022-09-24T00:53:57.008Z,15.44
2022-09-24T00:54:58.859Z,15.58
2022-09-24T00:56:04.176Z,15.35
2022-09-24T00:57:06.617Z,14.94
2022-09-24T00:58:10.082Z,14.53
2022-09-24T00:59:17.374Z,14.16
2022-09-24T01:00:19.452Z,13.81
2022-09-24T01:01:24.744Z,13.54
2022-09-24T01:02:26.794Z,13.30
2022-09-24T01:03:30.850Z,13.11
2022-09-24T01:04:32.907Z,12.93
2022-09-24T01:05:37.648Z,12.76
2022-09-24T01:06:39.417Z,12.62
2022-09-24T01:07:41.170Z,12.49
2022-09-24T01:08:43.597Z,12.57
2022-09-24T01:09:45.579Z,13.01
2022-09-24T01:10:51.317Z,13.62
2022-09-24T01:12:20.938Z,14.26
2022-09-24T01:13:43.559Z,14.99
2022-09-24T01:15:08.335Z,15.42
2022-09-24T01:16:21.872Z,15.19
2022-09-24T01:17:37.208Z,14.73
2022-09-24T01:18:51.309Z,14.26
2022-09-24T01:20:23.042Z,13.85
2022-09-24T01:21:37.909Z,13.44
2022-09-24T01:22:48.672Z,13.18
2022-09-24T01:24:01.406Z,12.96
2022-09-24T01:25:33.017Z,12.81
2022-09-24T01:26:48.087Z,13.27
2022-09-24T01:28:18.687Z,13.97
2022-09-24T01:29:28.638Z,14.75
2022-09-24T01:30:38.046Z,15.25
2022-09-24T01:31:56.975Z,15.53
2022-09-24T01:33:04.439Z,15.28
2022-09-24T01:34:12.413Z,14.86
2022-09-24T01:35:19.775Z,14.42
2022-09-24T01:36:24.533Z,14.02
2022-09-24T01:37:33.115Z,13.70
2022-09-24T01:38:44.831Z,13.43
2022-09-24T01:39:47.708Z,13.18
2022-09-24T01:40:52.765Z,13.00
2022-09-24T01:41:57.355Z,12.82
2022-09-24T01:43:03.651Z,12.67
2022-09-24T01:44:07.539Z,12.50
2022-09-24T01:45:11.940Z,12.35
2022-09-24T01:46:19.899Z,12.22
2022-09-24T01:47:34.564Z,12.28
2022-09-24T01:48:38.039Z,12.86
2022-09-24T01:49:40.019Z,13.50
2022-09-24T01:50:53.576Z,14.09
2022-09-24T01:52:01.456Z,14.71
2022-09-24T01:53:19.524Z,15.11
2022-09-24T01:54:34.751Z,15.03
2022-09-24T01:55:43.990Z,14.61
2022-09-24T01:57:00.727Z,14.18
2022-09-24T01:58:11.579Z,13.75
2022-09-24T01:59:33.106Z,13.40
2022-09-24T02:00:42.679Z,13.06
2022-09-24T02:01:56.761Z,12.83
2022-09-24T02:03:08.794Z,12.60
2022-09-24T02:04:17.080Z,12.41
2022-09-24T02:05:44.392Z,12.26
2022-09-24T02:07:05.611Z,12.11
2022-09-24T02:08:20.641Z,12.49
2022-09-24T02:09:38.277Z,13.22
2022-09-24T02:10:52.611Z,13.97
2022-09-24T02:12:01.234Z,14.60
2022-09-24T02:13:10.731Z,14.94
2022-09-24T02:14:14.940Z,14.81
2022-09-24T02:15:27.797Z,14.46
2022-09-24T02:16:41.869Z,13.98
2022-09-24T02:17:48.639Z,13.58
2022-09-24T02:18:57.584Z,13.26
2022-09-24T02:20:03.237Z,12.98
2022-09-24T02:21:11.134Z,12.77
2022-09-24T02:22:14.581Z,12.57
2022-09-24T02:23:20.333Z,12.41
2022-09-24T02:24:34.738Z,12.27
2022-09-24T02:25:48.925Z,12.12
2022-09-24T02:26:51.183Z,11.99
2022-09-24T02:27:53.199Z,11.90
2022-09-24T02:28:55.111Z,11.82
2022-09-24T02:29:58.928Z,11.74
2022-09-24T02:31:13.269Z,11.68
2022-09-24T02:32:20.192Z,11.97
2022-09-24T02:33:44.507Z,12.61
2022-09-24T02:34:52.771Z,13.55
2022-09-24T02:35:54.945Z,14.24
2022-09-24T02:37:06.100Z,14.76
2022-09-24T02:38:16.435Z,14.98
2022-09-24T02:39:19.609Z,14.72
2022-09-24T02:40:21.517Z,14.35
2022-09-24T02:41:26.030Z,13.97
2022-09-24T02:42:27.997Z,13.63
2022-09-24T02:43:29.978Z,13.35
2022-09-24T02:44:33.059Z,13.10
2022-09-24T02:45:34.929Z,12.90
2022-09-24T02:46:36.718Z,12.72
2022-09-24T02:47:39.019Z,12.57
2022-09-24T02:48:40.926Z,12.43
2022-09-24T02:49:42.685Z,12.30
2022-09-24T02:50:44.541Z,12.19
2022-09-24T02:51:46.249Z,12.09
2022-09-24T02:52:47.992Z,11.99
2022-09-24T02:53:50.365Z,11.91
2022-09-24T02:54:52.140Z,11.82
2022-09-24T02:55:53.818Z,11.75
2022-09-24T02:56:55.585Z,11.70
2022-09-24T02:57:57.638Z,11.97
2022-09-24T02:59:02.070Z,12.55
2022-09-24T03:00:06.008Z,13.24
2022-09-24T03:01:07.858Z,13.88
2022-09-24T03:02:09.682Z,14.43
2022-09-24T03:03:11.483Z,14.74
2022-09-24T03:04:14.140Z,14.66
2022-09-24T03:05:18.660Z,14.34
2022-09-24T03:06:20.480Z,13.98
2022-09-24T03:07:22.714Z,13.66
2022-09-24T03:08:24.826Z,13.38
2022-09-24T03:09:26.542Z,13.15
2022-09-24T03:10:28.312Z,12.95
2022-09-24T03:11:32.042Z,12.77
2022-09-24T03:12:33.740Z,12.60
2022-09-24T03:13:35.448Z,12.44
2022-09-24T03:14:37.140Z,12.31
2022-09-24T03:15:38.983Z,12.24
2022-09-24T03:16:41.240Z,12.50
2022-09-24T03:17:43.006Z,13.07
2022-09-24T03:18:46.985Z,13.70
2022-09-24T03:19:48.788Z,14.31
2022-09-24T03:21:04.583Z,14.81
2022-09-24T03:22:06.307Z,15.25
2022-09-24T03:23:08.049Z,15.21
2022-09-24T03:24:09.748Z,14.90
2022-09-24T03:25:11.476Z,14.52
2022-09-24T03:26:14.592Z,14.16
2022-09-24T03:27:16.363Z,13.80
2022-09-24T03:28:18.475Z,13.51
2022-09-24T03:29:40.185Z,13.27
2022-09-24T03:31:00.200Z,13.00
2022-09-24T03:32:02.442Z,12.78
2022-09-24T03:33:04.344Z,12.64
2022-09-24T03:34:06.169Z,12.51
2022-09-24T03:35:08.488Z,12.39
2022-09-24T03:36:12.295Z,12.27
2022-09-24T03:37:14.048Z,12.17
2022-09-24T03:38:15.764Z,12.08
2022-09-24T03:39:17.631Z,11.98
2022-09-24T03:40:19.421Z,11.92
2022-09-24T03:41:21.522Z,12.16
2022-09-24T03:42:23.349Z,12.73
2022-09-24T03:43:26.073Z,13.39
2022-09-24T03:44:28.688Z,14.00
2022-09-24T03:45:30.404Z,14.54
2022-09-24T03:46:32.347Z,14.92
2022-09-24T03:47:34.415Z,14.93
2022-09-24T03:48:38.778Z,14.65
2022-09-24T03:49:40.551Z,14.28
2022-09-24T03:50:43.195Z,13.91
2022-09-24T03:51:44.981Z,13.58
2022-09-24T03:52:46.794Z,13.30
2022-09-24T03:53:48.671Z,13.06
2022-09-24T03:54:50.979Z,12.86
2022-09-24T03:55:56.396Z,12.68
2022-09-24T03:56:58.114Z,12.52
2022-09-24T03:57:59.971Z,12.40
2022-09-24T03:59:01.699Z,12.28
2022-09-24T04:00:04.795Z,12.17
2022-09-24T04:01:10.791Z,12.06
2022-09-24T04:02:13.375Z,12.06
2022-09-24T04:03:15.215Z,12.43
2022-09-24T04:04:17.087Z,13.03
2022-09-24T04:05:19.139Z,13.67
2022-09-24T04:06:25.505Z,14.23
2022-09-24T04:07:28.137Z,14.75
2022-09-24T04:08:31.656Z,15.02
2022-09-24T04:09:33.457Z,14.90
2022-09-24T04:10:35.391Z,14.56
2022-09-24T04:11:38.033Z,14.19
2022-09-24T04:12:39.964Z,13.82
2022-09-24T04:13:41.682Z,13.52
2022-09-24T04:14:43.419Z,13.25
2022-09-24T04:15:45.489Z,13.01
2022-09-24T04:16:47.757Z,12.81
2022-09-24T04:17:51.393Z,12.63
2022-09-24T04:18:55.572Z,12.46
2022-09-24T04:20:01.796Z,12.32
2022-09-24T04:21:03.939Z,12.18
2022-09-24T04:22:05.702Z,12.06
2022-09-24T04:23:08.025Z,11.96
2022-09-24T04:24:09.902Z,12.07
2022-09-24T04:25:14.860Z,12.55
2022-09-24T04:26:17.254Z,13.21
2022-09-24T04:27:19.401Z,13.81
2022-09-24T04:28:21.281Z,14.36
2022-09-24T04:29:22.989Z,14.80
2022-09-24T04:30:26.424Z,15.00
2022-09-24T04:31:28.217Z,14.84
2022-09-24T04:32:29.975Z,14.49
2022-09-24T04:33:31.803Z,14.12
2022-09-24T04:34:33.638Z,13.76
2022-09-24T04:35:36.341Z,13.45
2022-09-24T04:36:38.087Z,13.18
2022-09-24T04:37:40.323Z,12.95
2022-09-24T04:38:42.571Z,12.75
2022-09-24T04:39:44.334Z,12.58
2022-09-24T04:40:47.350Z,12.43
2022-09-24T04:41:49.131Z,12.29
2022-09-24T04:42:51.013Z,12.17
2022-09-24T04:43:53.150Z,12.12
2022-09-24T04:44:56.311Z,12.41
2022-09-24T04:45:59.579Z,13.00
2022-09-24T04:47:03.280Z,13.63
2022-09-24T04:48:05.783Z,14.21
2022-09-24T04:49:09.259Z,14.70
2022-09-24T04:50:11.651Z,15.05
2022-09-24T04:51:13.644Z,15.03
2022-09-24T04:52:15.725Z,14.73
2022-09-24T04:53:18.779Z,14.34
2022-09-24T04:54:20.734Z,13.94
2022-09-24T04:55:24.036Z,13.59
2022-09-24T04:56:25.796Z,13.29
2022-09-24T04:57:29.148Z,13.03
2022-09-24T04:58:31.457Z,12.81
2022-09-24T04:59:33.227Z,12.60
2022-09-24T05:00:35.032Z,12.43
2022-09-24T05:01:37.231Z,12.29
2022-09-24T05:02:39.158Z,12.42
2022-09-24T05:03:41.213Z,12.90
2022-09-24T05:04:43.954Z,13.50
2022-09-24T05:05:45.746Z,14.07
2022-09-24T05:06:48.632Z,14.57
2022-09-24T05:07:51.309Z,14.99
2022-09-24T05:08:53.245Z,15.22
2022-09-24T05:09:55.083Z,15.07
2022-09-24T05:10:56.801Z,14.73
2022-09-24T05:11:59.677Z,14.34
2022-09-24T05:13:02.240Z,13.96
2022-09-24T05:14:04.303Z,13.63
2022-09-24T05:15:06.848Z,13.37
2022-09-24T05:16:09.430Z,13.14
2022-09-24T05:17:11.226Z,12.94
2022-09-24T05:18:13.033Z,12.76
2022-09-24T05:19:14.882Z,12.60
2022-09-24T05:20:19.735Z,12.50
2022-09-24T05:21:22.323Z,12.74
2022-09-24T05:22:26.073Z,13.28
2022-09-24T05:23:28.054Z,13.91
2022-09-24T05:24:29.836Z,14.49
2022-09-24T05:25:31.672Z,14.96
2022-09-24T05:26:52.134Z,15.32
2022-09-24T05:27:55.646Z,15.26
2022-09-24T05:28:57.408Z,14.91
2022-09-24T05:30:00.766Z,14.50
2022-09-24T05:31:02.681Z,14.11
2022-09-24T05:32:06.133Z,13.77
2022-09-24T05:33:07.984Z,13.47
2022-09-24T05:34:09.750Z,13.23
2022-09-24T05:35:12.724Z,13.01
2022-09-24T05:36:14.686Z,12.83
2022-09-24T05:37:16.835Z,12.66
2022-09-24T05:38:18.668Z,12.57
2022-09-24T05:39:20.420Z,12.82
2022-09-24T05:40:41.069Z,13.38
2022-09-24T05:41:43.836Z,14.19
2022-09-24T05:42:46.803Z,14.75
2022-09-24T05:43:49.108Z,15.21
2022-09-24T05:44:52.380Z,15.51
2022-09-24T05:45:54.675Z,15.43
2022-09-24T05:46:57.072Z,15.09
2022-09-24T05:48:01.608Z,14.70
2022-09-24T05:49:04.366Z,14.31
2022-09-24T05:50:06.797Z,13.99
2022-09-24T05:51:09.060Z,13.71
2022-09-24T05:52:10.800Z,13.47
2022-09-24T05:53:13.243Z,13.26
2022-09-24T05:54:15.038Z,13.07
2022-09-24T05:55:16.822Z,12.90
2022-09-24T05:56:18.709Z,12.75
2022-09-24T05:57:20.751Z,12.70
2022-09-24T05:58:22.621Z,13.02
2022-09-24T05:59:25.119Z,13.58
2022-09-24T06:00:27.878Z,14.18
2022-09-24T06:01:33.011Z,14.73
2022-09-24T06:02:34.796Z,15.21
2022-09-24T06:03:36.553Z,15.51
2022-09-24T06:04:38.346Z,15.46
2022-09-24T06:05:46.186Z,15.15
2022-09-24T06:06:48.143Z,14.71
2022-09-24T06:07:51.328Z,14.32
2022-09-24T06:08:54.107Z,13.99
2022-09-24T06:09:59.166Z,13.71
2022-09-24T06:11:03.382Z,13.47
2022-09-24T06:12:08.489Z,13.25
2022-09-24T06:13:11.627Z,13.06
2022-09-24T06:14:13.352Z,12.91
2022-09-24T06:15:15.820Z,12.79
2022-09-24T06:16:18.648Z,12.96
2022-09-24T06:17:21.959Z,13.48
2022-09-24T06:18:24.616Z,14.12
2022-09-24T06:19:26.406Z,14.70
2022-09-24T06:20:28.173Z,15.18
2022-09-24T06:21:29.956Z,15.53
2022-09-24T06:22:32.115Z,15.54
2022-09-24T06:23:38.495Z,15.25
2022-09-24T06:24:40.330Z,14.83
2022-09-24T06:25:42.161Z,14.46
2022-09-24T06:26:43.911Z,14.13
2022-09-24T06:27:45.779Z,13.83
2022-09-24T06:28:47.580Z,13.60
2022-09-24T06:29:49.329Z,13.39
2022-09-24T06:30:51.751Z,13.21
2022-09-24T06:31:53.724Z,13.07
2022-09-24T06:32:55.848Z,12.93
2022-09-24T06:33:57.607Z,12.82
2022-09-24T06:34:59.481Z,12.88
2022-09-24T06:36:03.342Z,13.33
2022-09-24T06:37:05.482Z,13.97
2022-09-24T06:38:11.494Z,14.60
2022-09-24T06:39:13.328Z,15.17
2022-09-24T06:40:16.076Z,15.63
2022-09-24T06:41:18.465Z,15.82
2022-09-24T06:42:20.901Z,15.64
2022-09-24T06:43:22.744Z,15.29
2022-09-24T06:44:24.519Z,14.91
2022-09-24T06:45:27.063Z,14.56
2022-09-24T06:46:28.873Z,14.26
2022-09-24T06:47:30.677Z,13.99
2022-09-24T06:48:32.893Z,13.75
2022-09-24T06:49:34.692Z,13.57
2022-09-24T06:50:43.528Z,13.42
2022-09-24T06:51:45.891Z,13.27
2022-09-24T06:52:47.877Z,13.16
2022-09-24T06:53:52.892Z,13.06
2022-09-24T06:54:56.040Z,13.18
2022-09-24T06:56:03.485Z,13.69
2022-09-24T06:57:06.783Z,14.39
2022-09-24T06:58:12.248Z,15.01
2022-09-24T06:59:14.145Z,15.56
2022-09-24T07:00:17.715Z,15.97
2022-09-24T07:01:19.545Z,16.06
2022-09-24T07:02:21.628Z,15.82
2022-09-24T07:03:23.529Z,15.47
2022-09-24T07:04:25.253Z,15.11
2022-09-24T07:05:27.061Z,14.79
2022-09-24T07:06:48.778Z,14.51
2022-09-24T07:07:50.560Z,14.21
2022-09-24T07:08:52.295Z,14.01
2022-09-24T07:09:54.062Z,13.84
2022-09-24T07:10:55.832Z,13.70
2022-09-24T07:11:59.023Z,13.57
2022-09-24T07:13:00.767Z,13.45
2022-09-24T07:14:02.558Z,13.35
2022-09-24T07:15:04.802Z,13.25
2022-09-24T07:16:06.992Z,13.14
2022-09-24T07:17:08.805Z,13.06
2022-09-24T07:18:12.017Z,13.14
2022-09-24T07:19:13.914Z,13.61
2022-09-24T07:20:15.831Z,14.26
2022-09-24T07:21:18.134Z,14.91
2022-09-24T07:22:20.491Z,15.49
2022-09-24T07:23:23.831Z,15.97
2022-09-24T07:24:25.734Z,16.28
2022-09-24T07:25:27.509Z,16.22
2022-09-24T07:26:29.840Z,15.93
2022-09-24T07:27:33.383Z,15.55
2022-09-24T07:28:35.119Z,15.22
2022-09-24T07:29:37.250Z,14.93
2022-09-24T07:30:40.490Z,14.69
2022-09-24T07:31:42.282Z,14.48
2022-09-24T07:32:44.146Z,14.31
2022-09-24T07:33:45.873Z,14.16
2022-09-24T07:34:48.457Z,14.02
2022-09-24T07:35:51.181Z,13.89
2022-09-24T07:36:53.079Z,13.78
2022-09-24T07:38:12.429Z,13.69
2022-09-24T07:39:14.749Z,13.74
2022-09-24T07:40:16.682Z,14.18
2022-09-24T07:41:20.439Z,14.83
2022-09-24T07:42:22.330Z,15.49
2022-09-24T07:43:24.130Z,16.06
2022-09-24T07:44:25.966Z,16.53
2022-09-24T07:45:29.947Z,16.73
2022-09-24T07:46:31.847Z,16.56
2022-09-24T07:47:34.293Z,16.24
2022-09-24T07:48:36.701Z,15.90
2022-09-24T07:49:39.048Z,15.60
2022-09-24T07:50:42.825Z,15.34
2022-09-24T07:51:45.337Z,15.12
2022-09-24T07:52:50.807Z,14.91
2022-09-24T07:53:53.252Z,14.73
2022-09-24T07:54:55.482Z,14.58
2022-09-24T07:56:00.621Z,14.45
2022-09-24T07:57:02.908Z,14.31
2022-09-24T07:58:04.711Z,14.20
2022-09-24T07:59:07.436Z,14.10
2022-09-24T08:00:09.874Z,14.01
2022-09-24T08:01:14.482Z,13.92
2022-09-24T08:02:17.887Z,13.84
2022-09-24T08:03:20.439Z,13.77
2022-09-24T08:04:22.566Z,13.71
2022-09-24T08:05:24.758Z,13.65
2022-09-24T08:06:27.928Z,13.60
2022-09-24T08:07:29.703Z,13.56
2022-09-24T08:08:31.497Z,13.63
2022-09-24T08:09:33.335Z,14.06
2022-09-24T08:10:35.101Z,14.71
2022-09-24T08:11:37.222Z,15.38
2022-09-24T08:12:39.101Z,16.00
2022-09-24T08:13:40.824Z,16.50
2022-09-24T08:14:43.362Z,16.66
2022-09-24T08:15:45.255Z,16.50
2022-09-24T08:16:47.602Z,16.23
2022-09-24T08:17:49.640Z,15.95
2022-09-24T08:18:51.581Z,15.68
2022-09-24T08:19:56.807Z,15.45
2022-09-24T08:21:03.529Z,15.27
2022-09-24T08:22:07.864Z,15.12
2022-09-24T08:23:12.681Z,15.01
2022-09-24T08:24:16.043Z,14.91
2022-09-24T08:25:17.877Z,14.84
2022-09-24T08:26:19.640Z,14.78
2022-09-24T08:27:22.056Z,14.73
2022-09-24T08:28:23.876Z,14.69
2022-09-24T08:29:25.806Z,14.64
2022-09-24T08:30:27.555Z,14.60
2022-09-24T08:31:30.643Z,14.57
2022-09-24T08:32:32.805Z,14.53
2022-09-24T08:33:36.338Z,14.49
2022-09-24T08:34:40.621Z,14.45
2022-09-24T08:35:42.377Z,14.40
2022-09-24T08:36:44.121Z,14.36
2022-09-24T08:37:46.651Z,14.33
2022-09-24T08:38:48.386Z,14.30
2022-09-24T08:39:50.126Z,14.27
2022-09-24T08:41:18.946Z,14.25
2022-09-24T08:42:36.665Z,14.24
2022-09-24T08:43:57.199Z,14.23
2022-09-24T08:45:19.821Z,14.46
2022-09-24T08:46:56.345Z,15.25
2022-09-24T08:48:06.489Z,16.34
2022-09-24T08:49:17.151Z,17.02
2022-09-24T08:50:26.465Z,17.48
2022-09-24T08:51:36.506Z,17.45
2022-09-24T08:53:01.886Z,17.16
2022-09-24T08:54:13.361Z,16.75
2022-09-24T08:55:44.147Z,16.46
2022-09-24T08:56:46.767Z,16.16
2022-09-24T08:58:04.805Z,16.01
2022-09-24T08:59:33.301Z,15.84
2022-09-24T09:00:44.843Z,15.70
2022-09-24T09:02:03.685Z,15.62
2022-09-24T09:03:21.380Z,15.55
2022-09-24T09:04:40.926Z,15.48
2022-09-24T09:06:03.638Z,15.41
2022-09-24T09:07:20.919Z,15.33
2022-09-24T09:09:06.764Z,15.28
2022-09-24T09:10:18.474Z,15.25
2022-09-24T09:11:24.946Z,15.23
2022-09-24T09:12:52.902Z,15.20
2022-09-24T09:14:08.868Z,15.16
2022-09-24T09:15:24.664Z,15.11
2022-09-24T09:16:34.104Z,15.08
2022-09-24T09:18:01.822Z,15.05
2022-09-24T09:19:14.054Z,15.04
2022-09-24T09:20:32.781Z,15.02
2022-09-24T09:21:43.361Z,15.00
2022-09-24T09:22:49.777Z,14.99
2022-09-24T09:23:55.949Z,14.98
2022-09-24T09:25:15.284Z,14.97
2022-09-24T09:26:19.405Z,14.96
2022-09-24T09:27:21.920Z,14.95
2022-09-24T09:28:27.093Z,14.94
2022-09-24T09:29:30.102Z,14.92
2022-09-24T09:30:46.194Z,14.91
2022-09-24T09:32:09.970Z,14.88
2022-09-24T09:33:29.702Z,14.87
2022-09-24T09:35:03.585Z,14.86
2022-09-24T09:36:39.855Z,14.84
2022-09-24T09:38:25.158Z,14.83
2022-09-24T09:39:39.079Z,14.81
2022-09-24T09:40:57.523Z,14.81
2022-09-24T09:42:22.757Z,14.82
2022-09-24T09:43:25.535Z,14.83
2022-09-24T09:44:31.114Z,14.84
2022-09-24T09:45:40.110Z,14.84
2022-09-24T09:46:53.497Z,14.86
2022-09-24T09:47:59.605Z,14.88
2022-09-24T09:49:07.158Z,14.90
2022-09-24T09:50:37.908Z,14.90
2022-09-24T09:51:42.935Z,14.92
2022-09-24T09:52:44.811Z,14.94
2022-09-24T09:54:04.311Z,14.96
2022-09-24T09:55:06.784Z,14.98
2022-09-24T09:56:08.583Z,14.98
2022-09-24T09:57:18.102Z,15.00
2022-09-24T09:58:24.339Z,15.03
2022-09-24T09:59:30.008Z,15.07
2022-09-24T10:00:36.558Z,15.12
2022-09-24T10:01:41.541Z,15.14
2022-09-24T10:02:43.991Z,15.19
2022-09-24T10:03:52.036Z,15.23
2022-09-24T10:05:01.069Z,15.27
2022-09-24T10:06:06.653Z,15.31
2022-09-24T10:07:12.850Z,15.36
2022-09-24T10:08:25.202Z,15.41
2022-09-24T10:09:27.221Z,15.48
2022-09-24T10:10:29.566Z,15.54
2022-09-24T10:11:31.330Z,15.58
2022-09-24T10:12:33.156Z,15.61
2022-09-24T10:13:36.335Z,15.66
2022-09-24T10:14:38.068Z,15.71
2022-09-24T10:15:53.559Z,15.76
2022-09-24T10:16:55.830Z,15.81
2022-09-24T10:18:01.146Z,15.85
2022-09-24T10:19:03.001Z,15.87
2022-09-24T10:20:14.009Z,15.91
2022-09-24T10:21:31.411Z,15.94
2022-09-24T10:22:33.525Z,15.99
2022-09-24T10:23:44.592Z,16.02
2022-09-24T10:24:46.491Z,16.06
2022-09-24T10:25:59.775Z,16.10
2022-09-24T10:27:14.687Z,16.17
2022-09-24T10:28:39.591Z,16.24
2022-09-24T10:30:00.355Z,16.33
2022-09-24T10:31:15.092Z,16.42
2022-09-24T10:32:21.427Z,16.49
2022-09-24T10:33:24.169Z,16.54
2022-09-24T10:34:28.469Z,16.59
2022-09-24T10:35:35.754Z,16.64
2022-09-24T10:36:37.563Z,16.69
2022-09-24T10:37:53.455Z,16.74
2022-09-24T10:39:21.481Z,16.82
2022-09-24T10:40:30.913Z,16.90
2022-09-24T10:41:32.911Z,16.95
2022-09-24T10:42:34.640Z,16.99
2022-09-24T10:43:36.788Z,17.04
2022-09-24T10:44:38.606Z,17.08
2022-09-24T10:45:53.127Z,17.14
2022-09-24T10:47:22.422Z,17.24
2022-09-24T10:48:28.723Z,17.33
2022-09-24T10:49:58.078Z,17.39
2022-09-24T10:51:36.579Z,17.48
2022-09-24T10:52:47.295Z,17.55
2022-09-24T10:53:55.105Z,17.57
2022-09-24T10:55:39.593Z,17.60
2022-09-24T10:56:53.695Z,17.64
2022-09-24T10:58:33.292Z,17.69
2022-09-24T10:59:47.032Z,17.76
2022-09-24T11:00:58.250Z,17.82
2022-09-24T11:02:28.996Z,17.85
2022-09-24T11:04:01.962Z,17.86
2022-09-24T11:05:21.859Z,17.88
2022-09-24T11:07:08.861Z,17.91
2022-09-24T11:08:36.597Z,17.94
2022-09-24T11:10:10.258Z,17.94
2022-09-24T11:11:56.988Z,17.94
2022-09-24T11:13:20.822Z,17.97
2022-09-24T11:14:28.136Z,18.00
2022-09-24T11:15:50.978Z,18.02
2022-09-24T11:17:11.178Z,18.06
2022-09-24T11:18:45.986Z,18.15
2022-09-24T11:20:02.402Z,18.27
2022-09-24T11:21:41.243Z,18.41
2022-09-24T11:23:17.249Z,18.59
2022-09-24T11:24:38.459Z,18.76
2022-09-24T11:25:58.426Z,18.90
2022-09-24T11:27:22.821Z,18.99
2022-09-24T11:28:30.337Z,19.05
2022-09-24T11:29:54.814Z,19.07
2022-09-24T11:30:59.234Z,19.08
2022-09-24T11:32:12.599Z,19.08
2022-09-24T11:33:39.985Z,19.07
2022-09-24T11:35:04.816Z,19.06
2022-09-24T11:36:17.142Z,19.08
2022-09-24T11:37:40.169Z,19.08
2022-09-24T11:38:47.891Z,19.05
2022-09-24T11:39:55.306Z,19.03
2022-09-24T11:41:21.394Z,19.02
2022-09-24T11:42:37.672Z,18.99
2022-09-24T11:44:01.227Z,18.95
2022-09-24T11:45:47.747Z,18.90
2022-09-24T11:47:01.270Z,18.85
2022-09-24T11:48:02.966Z,18.82
2022-09-24T11:49:25.616Z,18.81
2022-09-24T11:50:27.221Z,18.78
2022-09-24T11:51:54.693Z,18.75
2022-09-24T11:53:07.557Z,18.68
2022-09-24T11:54:19.963Z,18.61
2022-09-24T11:55:41.130Z,18.53
2022-09-24T11:56:49.991Z,18.43
2022-09-24T11:58:16.602Z,18.32
2022-09-24T11:59:38.978Z,18.19
2022-09-24T12:00:49.900Z,18.09
2022-09-24T12:02:01.731Z,18.01
2022-09-24T12:03:15.249Z,17.94
2022-09-24T12:04:44.147Z,17.85
2022-09-24T12:05:49.673Z,17.75
2022-09-24T12:07:15.489Z,17.68
2022-09-24T12:08:27.810Z,17.58
2022-09-24T12:09:45.515Z,17.49
2022-09-24T12:10:56.984Z,17.40
2022-09-24T12:12:12.747Z,17.33
2022-09-24T12:13:32.939Z,17.26
2022-09-24T12:15:05.893Z,17.19
2022-09-24T12:16:22.750Z,17.15
2022-09-24T12:17:34.177Z,17.09
2022-09-24T12:18:45.196Z,17.03
2022-09-24T12:19:58.052Z,16.99
2022-09-24T12:21:07.459Z,16.92
2022-09-24T12:22:11.431Z,16.86
2022-09-24T12:23:19.390Z,16.82
2022-09-24T12:24:59.309Z,16.78
2022-09-24T12:26:07.890Z,16.74
2022-09-24T12:27:18.168Z,16.73
2022-09-24T12:28:50.635Z,16.71
2022-09-24T12:30:47.404Z,16.69
2022-09-24T12:32:25.847Z,16.70
2022-09-24T12:33:42.335Z,16.73
2022-09-24T12:35:00.017Z,16.74
2022-09-24T12:36:30.905Z,16.77
2022-09-24T12:37:39.358Z,16.78
2022-09-24T12:38:47.866Z,16.78
2022-09-24T12:40:13.029Z,16.80
2022-09-24T12:41:36.109Z,16.83
2022-09-24T12:42:45.957Z,16.89
2022-09-24T12:43:51.930Z,16.96
2022-09-24T12:44:57.341Z,17.07
2022-09-24T12:46:03.084Z,17.18
2022-09-24T12:47:07.173Z,17.30
2022-09-24T12:48:16.095Z,17.41
2022-09-24T12:49:26.604Z,17.52
2022-09-24T12:50:38.979Z,17.65
2022-09-24T12:51:40.999Z,17.78
2022-09-24T12:52:43.621Z,17.89
2022-09-24T12:53:58.457Z,17.98
2022-09-24T12:55:05.362Z,18.07
2022-09-24T12:56:09.786Z,18.14
2022-09-24T12:57:25.331Z,18.18
2022-09-24T12:58:43.783Z,18.18
2022-09-24T13:00:04.944Z,18.18
2022-09-24T13:01:14.282Z,18.15
2022-09-24T13:02:38.722Z,18.14
2022-09-24T13:03:47.009Z,18.14
2022-09-24T13:05:17.495Z,18.13
2022-09-24T13:06:40.305Z,18.13
2022-09-24T13:07:44.302Z,18.11
2022-09-24T13:08:46.074Z,18.08
2022-09-24T13:09:48.261Z,18.06
2022-09-24T13:11:00.609Z,18.04
2022-09-24T13:12:17.788Z,18.03
2022-09-24T13:13:33.713Z,18.02
2022-09-24T13:14:35.612Z,18.00
2022-09-24T13:15:40.633Z,17.98
2022-09-24T13:16:48.965Z,17.98
2022-09-24T13:18:05.250Z,17.98
2022-09-24T13:19:23.768Z,17.97
2022-09-24T13:20:26.608Z,17.96
2022-09-24T13:21:30.779Z,17.95
2022-09-24T13:22:37.134Z,17.94
2022-09-24T13:23:38.796Z,17.92
2022-09-24T13:24:53.297Z,17.89
2022-09-24T13:26:04.822Z,17.85
2022-09-24T13:27:30.587Z,17.81
2022-09-24T13:28:58.650Z,17.76
2022-09-24T13:30:12.737Z,17.70
2022-09-24T13:31:27.570Z,17.63
2022-09-24T13:32:36.889Z,17.57
2022-09-24T13:33:49.807Z,17.51
2022-09-24T13:34:52.097Z,17.45
2022-09-24T13:36:14.713Z,17.40
2022-09-24T13:37:32.171Z,17.33
2022-09-24T13:38:41.652Z,17.26
2022-09-24T13:39:55.362Z,17.19
2022-09-24T13:41:22.432Z,17.12
2022-09-24T13:42:42.657Z,17.05
2022-09-24T13:43:52.061Z,16.99
2022-09-24T13:45:00.689Z,16.92
2022-09-24T13:46:08.926Z,16.86
2022-09-24T13:47:20.025Z,16.79
2022-09-24T13:48:49.471Z,16.74
2022-09-24T13:49:59.438Z,16.67
2022-09-24T13:51:04.959Z,16.63
2022-09-24T13:52:33.538Z,16.58
2022-09-24T13:53:42.365Z,16.53
2022-09-24T13:54:56.700Z,16.48
2022-09-24T13:56:06.950Z,16.43
2022-09-24T13:57:19.857Z,16.39
2022-09-24T13:58:29.752Z,16.34
2022-09-24T13:59:31.471Z,16.30
2022-09-24T14:00:42.130Z,16.26
2022-09-24T14:01:44.675Z,16.23
2022-09-24T14:02:58.578Z,16.20
2022-09-24T14:04:06.485Z,16.15
2022-09-24T14:05:16.919Z,16.12
2022-09-24T14:06:31.740Z,16.08
2022-09-24T14:07:33.564Z,16.05
2022-09-24T14:08:36.471Z,16.01
2022-09-24T14:09:39.030Z,15.98
2022-09-24T14:10:41.736Z,15.95
2022-09-24T14:11:56.248Z,15.92
2022-09-24T14:13:22.979Z,15.89
2022-09-24T14:14:27.967Z,15.86
2022-09-24T14:15:29.698Z,15.84
2022-09-24T14:16:31.738Z,15.82
2022-09-24T14:17:33.642Z,15.80
2022-09-24T14:18:37.083Z,15.79
2022-09-24T14:19:39.142Z,15.78
2022-09-24T14:20:41.241Z,15.77
2022-09-24T14:21:58.942Z,15.76
2022-09-24T14:23:04.417Z,15.75
2022-09-24T14:24:31.054Z,15.75
2022-09-24T14:25:37.699Z,15.74
2022-09-24T14:27:07.385Z,15.74
2022-09-24T14:28:13.343Z,15.74
2022-09-24T14:29:26.174Z,15.74
2022-09-24T14:30:32.443Z,15.74
2022-09-24T14:31:45.195Z,15.73
2022-09-24T14:32:53.778Z,15.73
2022-09-24T14:33:56.212Z,15.74
2022-09-24T14:35:07.951Z,15.73
2022-09-24T14:36:14.621Z,15.73
2022-09-24T14:37:25.041Z,15.73
2022-09-24T14:38:34.403Z,15.73
2022-09-24T14:39:42.106Z,15.73